Time;durP1;ratioP1;P1;durP2;ratioP2;P2;SDS_P1;SDS_P2;PMS_P1;PMS_P2;Temp;Humidity;BMP_temperature;BMP_pressure;BME280_temperature;BME280_humidity;BME280_pressure;Samples;Min_cycle;Max_cycle;Signal;HPM_P1;HPM_P2
2022/10/30 00:01:00;;;;;;;16.65;9.30;;;13.90;99.90;;;-141.84;81.66;18970.50;5013943;28;20234;-60
2022/10/30 00:03:28;;;;;;;13.90;9.45;;;13.90;99.90;;;-141.84;81.13;18944.09;5013843;28;20230;-60
2022/10/30 00:05:56;;;;;;;14.05;9.93;;;14.00;99.90;;;-141.84;81.55;18990.81;5013960;28;20226;-58
2022/10/30 00:08:25;;;;;;;12.25;9.00;;;14.00;99.90;;;-141.84;81.64;18964.41;5015815;28;20230;-60
2022/10/30 00:10:54;;;;;;;16.15;9.25;;;13.90;99.90;;;-141.84;81.79;18940.03;5033317;28;20198;-59
2022/10/30 00:13:22;;;;;;;12.85;9.00;;;14.00;99.90;;;-141.84;82.07;18952.22;5032736;28;20583;-60
2022/10/30 00:15:53;;;;;;;12.60;9.27;;;13.90;99.90;;;-141.84;82.13;18952.22;5033379;28;20234;-60
2022/10/30 00:18:21;;;;;;;14.60;9.05;;;13.90;99.90;;;-141.84;82.07;18915.63;5033545;28;20233;-59
2022/10/30 00:20:49;;;;;;;12.88;9.02;;;13.90;99.90;;;-141.84;82.25;18911.56;5033237;28;20237;-59
2022/10/30 00:23:19;;;;;;;15.48;9.00;;;13.90;99.90;;;-141.84;82.58;18891.25;5033989;28;20248;-60
2022/10/30 00:25:47;;;;;;;14.80;8.70;;;13.80;99.90;;;-141.84;82.96;18895.31;5033807;28;20237;-59
2022/10/30 00:28:16;;;;;;;17.60;9.48;;;13.80;99.90;;;-141.84;83.22;18870.94;5033383;28;20234;-59
2022/10/30 00:30:44;;;;;;;14.75;9.68;;;13.80;99.90;;;-141.84;82.95;18905.47;5033327;28;20283;-61
2022/10/30 00:33:12;;;;;;;17.83;9.68;;;13.80;99.90;;;-141.84;82.96;18862.81;5032946;28;20230;-61
2022/10/30 00:35:48;;;;;;;13.40;9.02;;;13.80;99.90;;;-141.84;83.08;18899.38;5033210;28;20222;-60
2022/10/30 00:38:16;;;;;;;14.65;9.55;;;13.80;99.90;;;-141.84;82.32;18923.78;5033629;28;20228;-59
2022/10/30 00:40:44;;;;;;;12.98;9.00;;;13.90;99.90;;;-141.84;81.04;18980.66;5033200;28;20230;-59
2022/10/30 00:46:18;;;;;;;15.00;9.65;;;14.00;99.90;;;-141.84;79.49;18968.47;5065672;27;20612;-59
2022/10/30 00:48:54;;;;;;;15.85;9.18;;;14.10;99.90;;;-141.84;79.86;19000.97;5029087;28;20226;-60
2022/10/30 00:51:23;;;;;;;13.88;9.73;;;14.20;99.90;;;-141.84;80.08;18998.94;5028514;28;20234;-60
2022/10/30 00:53:53;;;;;;;15.15;9.32;;;14.20;99.90;;;-141.84;80.62;18988.78;5029105;28;20225;-60
2022/10/30 00:56:23;;;;;;;12.50;9.43;;;14.10;99.90;;;-141.84;81.13;18978.63;5028950;28;20206;-58
2022/10/30 00:58:57;;;;;;;14.93;9.18;;;14.10;99.90;;;-141.84;81.54;18931.91;5029622;28;20194;-60
2022/10/30 01:01:29;;;;;;;12.05;8.18;;;14.00;99.90;;;-141.84;82.02;18933.94;5028619;28;20230;-59
2022/10/30 01:04:02;;;;;;;11.68;8.63;;;13.90;99.90;;;-141.84;82.57;18868.91;5029377;28;20194;-59
2022/10/30 01:06:35;;;;;;;12.98;8.60;;;13.80;99.90;;;-141.84;82.94;18901.41;5028773;28;20198;-59
2022/10/30 01:09:04;;;;;;;14.90;8.88;;;13.80;99.90;;;-141.84;83.35;18842.50;5029046;28;20194;-60
2022/10/30 01:11:32;;;;;;;11.93;8.88;;;13.80;99.90;;;-141.84;83.48;18891.25;5028835;28;20642;-59
2022/10/30 01:14:07;;;;;;;14.88;9.27;;;13.70;99.90;;;-141.84;83.76;18852.66;5029073;28;20213;-59
2022/10/30 01:17:02;;;;;;;10.40;8.32;;;13.60;99.90;;;-141.84;84.21;18850.63;5029053;28;20193;-59
2022/10/30 01:19:44;;;;;;;14.25;9.40;;;13.60;99.90;;;-141.84;84.55;18846.56;5029327;28;20186;-59
2022/10/30 01:22:32;;;;;;;13.98;8.65;;;13.50;99.90;;;-141.84;84.92;18826.25;5028682;28;20206;-59
2022/10/30 01:25:16;;;;;;;11.90;9.02;;;13.50;99.90;;;-141.84;85.06;18818.09;5028321;28;20241;-60
2022/10/30 01:27:59;;;;;;;15.27;9.38;;;13.50;99.90;;;-141.84;85.21;18834.38;5027793;28;20182;-60
2022/10/30 01:30:47;;;;;;;14.95;8.52;;;13.50;99.90;;;-141.84;85.08;18814.03;5027956;28;20195;-60
2022/10/30 01:33:35;;;;;;;14.77;8.80;;;13.50;99.90;;;-141.84;85.17;18830.31;5027825;28;20197;-61
2022/10/30 01:36:14;;;;;;;13.13;9.48;;;13.50;99.90;;;-141.84;85.19;18814.03;5027789;28;20179;-60
2022/10/30 01:38:49;;;;;;;14.45;9.27;;;13.60;99.90;;;-141.84;85.09;18830.31;5027403;28;20194;-60
2022/10/30 01:41:17;;;;;;;12.90;9.18;;;13.60;99.90;;;-141.84;84.81;18822.19;5027467;28;20194;-60
2022/10/30 01:43:50;;;;;;;10.93;8.40;;;13.60;99.90;;;-141.84;84.43;18834.38;5027029;28;20198;-61
2022/10/30 01:46:51;;;;;;;14.88;9.32;;;13.70;99.90;;;-141.84;83.96;18838.44;5027615;28;20214;-61
2022/10/30 01:49:44;;;;;;;12.52;9.05;;;13.70;99.90;;;-141.84;83.96;18824.22;5027180;28;20190;-62
2022/10/30 01:52:22;;;;;;;11.32;8.23;;;13.80;99.90;;;-141.84;83.83;18826.25;5027308;28;20195;-62
2022/10/30 01:55:02;;;;;;;12.70;8.73;;;13.70;99.90;;;-141.84;83.57;18840.47;5027266;28;20182;-62
2022/10/30 01:57:40;;;;;;;10.85;8.43;;;13.80;99.90;;;-141.84;83.44;18828.28;5013395;28;20607;-60
2022/10/30 02:00:13;;;;;;;12.50;8.73;;;13.80;99.90;;;-141.84;83.36;18844.53;5014097;28;20857;-62
2022/10/30 02:02:42;;;;;;;11.00;8.10;;;13.80;99.90;;;-141.84;82.91;18862.81;5012727;28;20226;-62
2022/10/30 02:05:21;;;;;;;12.20;8.02;;;13.90;99.90;;;-141.84;82.80;18858.75;5014150;28;20542;-61
2022/10/30 02:07:49;;;;;;;10.55;8.32;;;13.90;99.90;;;-141.84;81.79;18895.31;5033455;28;20507;-61
2022/10/30 02:10:17;;;;;;;11.85;7.90;;;14.00;99.90;;;-141.84;81.54;18923.78;5033497;28;20308;-61
2022/10/30 02:12:45;;;;;;;15.15;8.13;;;14.00;99.90;;;-141.84;81.89;18893.28;5032838;28;20724;-62
2022/10/30 02:15:14;;;;;;;12.70;8.80;;;14.00;99.90;;;-141.84;81.79;18935.97;5033133;28;20222;-62
2022/10/30 02:17:42;;;;;;;9.75;8.02;;;14.10;99.90;;;-141.84;81.96;18893.28;5032842;28;20693;-61
2022/10/30 02:20:17;;;;;;;13.50;8.00;;;14.10;99.90;;;-141.84;81.96;18893.28;5033657;28;20209;-62
2022/10/30 02:22:46;;;;;;;10.60;8.10;;;14.10;99.90;;;-141.84;81.50;18919.69;5033126;28;20620;-61
2022/10/30 02:25:15;;;;;;;10.55;8.48;;;14.10;99.90;;;-141.84;81.27;18887.19;5032897;28;20284;-60
2022/10/30 02:27:43;;;;;;;9.60;7.65;;;14.20;99.90;;;-141.84;81.38;18897.34;5032693;28;20233;-60
2022/10/30 02:30:12;;;;;;;11.52;8.15;;;14.10;99.90;;;-141.84;81.66;18923.78;5033074;28;20238;-62
2022/10/30 02:32:40;;;;;;;12.07;7.45;;;14.20;99.90;;;-141.84;81.89;18909.53;5032937;28;20233;-62
2022/10/30 02:35:09;;;;;;;11.48;8.38;;;14.20;99.90;;;-141.84;81.82;18893.28;5033321;28;20198;-61
2022/10/30 02:37:39;;;;;;;11.13;7.88;;;14.10;99.90;;;-141.84;81.84;18883.13;5032470;28;20240;-60
2022/10/30 02:40:08;;;;;;;11.45;8.27;;;14.10;99.90;;;-141.84;81.83;18907.50;5032531;28;20241;-61
2022/10/30 02:42:36;;;;;;;11.50;8.15;;;14.20;99.90;;;-141.84;81.87;18899.38;5032533;28;20260;-60
2022/10/30 02:45:05;;;;;;;13.20;8.07;;;14.10;99.90;;;-141.84;81.64;18879.06;5032303;28;20265;-62
2022/10/30 02:47:33;;;;;;;11.57;8.10;;;14.20;99.90;;;-141.84;81.56;18907.50;5032533;28;20232;-61
2022/10/30 02:50:01;;;;;;;11.40;8.45;;;14.10;99.90;;;-141.84;81.50;18911.56;5032876;28;20209;-61
2022/10/30 02:52:29;;;;;;;10.73;7.88;;;14.10;99.90;;;-141.84;81.58;18931.91;5032459;28;20234;-61
2022/10/30 02:54:58;;;;;;;11.25;8.15;;;14.10;99.90;;;-141.84;81.39;18921.75;5032762;28;20230;-61
2022/10/30 02:57:26;;;;;;;11.07;8.52;;;14.10;99.90;;;-141.84;81.40;18950.19;5031525;28;20225;-61
2022/10/30 02:59:54;;;;;;;13.93;7.95;;;14.20;99.90;;;-141.84;81.55;18893.28;5032293;28;20268;-60
2022/10/30 03:02:23;;;;;;;11.77;7.95;;;14.20;99.90;;;-141.84;81.42;18909.53;5032080;28;20205;-61
2022/10/30 03:04:51;;;;;;;14.25;7.90;;;14.10;99.90;;;-141.84;80.97;18921.75;5032675;28;20234;-61
2022/10/30 03:07:19;;;;;;;10.85;7.57;;;14.10;99.90;;;-141.84;80.64;18921.75;5031294;28;20316;-62
2022/10/30 03:09:47;;;;;;;12.98;8.23;;;14.20;99.90;;;-141.84;80.79;18956.28;5031816;28;20222;-61
2022/10/30 03:12:16;;;;;;;11.10;7.90;;;14.20;99.90;;;-141.84;80.78;18905.47;5032060;28;20236;-61
2022/10/30 03:14:44;;;;;;;12.38;7.28;;;14.20;99.90;;;-141.84;80.76;18887.19;5032028;28;20222;-61
2022/10/30 03:17:12;;;;;;;11.48;7.43;;;14.20;99.90;;;-141.84;81.04;18940.03;5032465;28;20224;-61
2022/10/30 03:19:40;;;;;;;9.60;7.03;;;14.20;99.90;;;-141.84;81.31;18921.75;5031756;28;20245;-61
2022/10/30 03:22:08;;;;;;;10.00;7.57;;;14.10;99.90;;;-141.84;81.44;18903.44;5031692;28;20772;-61
2022/10/30 03:24:37;;;;;;;10.60;7.28;;;14.10;99.90;;;-141.84;81.66;18879.06;5031786;28;20222;-62
2022/10/30 03:27:05;;;;;;;9.68;7.60;;;14.10;99.90;;;-141.84;81.66;18921.75;5031978;28;20569;-61
2022/10/30 03:29:34;;;;;;;11.70;7.60;;;14.10;99.90;;;-141.84;81.79;18895.31;5031838;28;20264;-61
2022/10/30 03:32:02;;;;;;;12.07;7.55;;;14.00;99.90;;;-141.84;82.04;18899.38;5032317;28;20205;-61
2022/10/30 03:34:30;;;;;;;10.07;7.78;;;14.00;99.90;;;-141.84;82.14;18881.09;5031421;28;20288;-60
2022/10/30 03:36:58;;;;;;;11.07;8.20;;;14.00;99.90;;;-141.84;82.30;18921.75;5031393;28;20222;-62
2022/10/30 03:39:26;;;;;;;10.18;7.00;;;14.00;99.90;;;-141.84;82.36;18879.06;5031494;28;20729;-61
2022/10/30 03:41:54;;;;;;;13.05;8.02;;;13.90;99.90;;;-141.84;82.42;18891.25;5031531;28;20234;-61
2022/10/30 03:44:22;;;;;;;10.88;7.85;;;13.90;99.90;;;-141.84;82.50;18889.22;5031122;28;20604;-61
2022/10/30 03:46:52;;;;;;;9.85;7.93;;;13.90;99.90;;;-141.84;82.42;18850.63;5032005;28;20295;-60
2022/10/30 03:49:20;;;;;;;11.13;7.50;;;13.80;99.90;;;-141.84;82.55;18870.94;5030865;28;20230;-61
2022/10/30 03:51:48;;;;;;;11.77;7.57;;;13.80;99.90;;;-141.84;82.53;18875.00;5031444;28;20249;-61
2022/10/30 03:54:17;;;;;;;9.45;7.80;;;13.80;99.90;;;-141.84;82.50;18879.06;5030952;28;20299;-60
2022/10/30 03:56:45;;;;;;;10.20;7.70;;;13.80;99.90;;;-141.84;82.28;18870.94;5031278;28;20233;-60
2022/10/30 03:59:13;;;;;;;10.50;6.90;;;13.80;99.90;;;-141.84;82.19;18885.16;5031616;28;20213;-59
2022/10/30 04:01:41;;;;;;;12.95;7.80;;;13.90;99.90;;;-141.84;82.09;18883.13;5031035;28;20233;-59
2022/10/30 04:04:11;;;;;;;10.77;7.30;;;13.90;99.90;;;-141.84;81.95;18866.88;5031127;28;20233;-59
2022/10/30 04:06:38;;;;;;;10.02;7.20;;;13.90;99.90;;;-141.84;81.76;18915.63;5025145;28;20234;-58
2022/10/30 04:09:06;;;;;;;13.07;7.10;;;14.00;99.90;;;-141.84;81.26;18887.19;5011232;28;20230;-60
2022/10/30 04:11:34;;;;;;;11.65;7.28;;;13.90;99.90;;;-141.84;81.12;18923.78;5011361;28;20202;-60
2022/10/30 04:14:02;;;;;;;9.18;6.78;;;14.00;99.90;;;-141.84;80.97;18907.50;5011635;28;20217;-59
2022/10/30 04:16:30;;;;;;;14.38;7.65;;;14.00;99.90;;;-141.84;80.88;18921.75;5011052;28;20361;-61
2022/10/30 04:18:58;;;;;;;11.95;7.57;;;14.00;99.90;;;-141.84;80.76;18921.75;5010987;28;20385;-60
2022/10/30 04:21:28;;;;;;;12.13;7.38;;;14.00;99.90;;;-141.84;80.90;18903.44;5010054;28;20361;-59
2022/10/30 04:23:56;;;;;;;14.82;7.13;;;14.00;99.90;;;-141.84;80.96;18891.25;5010948;28;20280;-60
2022/10/30 04:26:24;;;;;;;11.07;7.28;;;13.90;99.90;;;-141.84;81.15;18925.81;5010847;28;20226;-58
2022/10/30 04:28:52;;;;;;;10.27;7.57;;;13.90;99.90;;;-141.84;80.76;18891.25;5011177;28;20269;-60
2022/10/30 04:31:20;;;;;;;9.35;6.78;;;14.00;99.90;;;-141.84;79.73;18915.63;5010796;28;20733;-59
2022/10/30 04:33:47;;;;;;;10.93;7.65;;;14.00;99.90;;;-141.84;79.71;18925.81;5010934;28;20235;-59
2022/10/30 04:36:16;;;;;;;7.85;6.65;;;14.10;99.90;;;-141.84;80.02;18889.22;5010946;28;20234;-60
2022/10/30 04:38:46;;;;;;;11.48;6.72;;;14.10;99.90;;;-141.84;80.46;18940.03;5010942;28;20234;-60
2022/10/30 04:41:14;;;;;;;9.48;6.85;;;14.10;99.90;;;-141.84;80.68;18907.50;5011273;28;20203;-59
2022/10/30 04:43:42;;;;;;;10.38;7.18;;;14.00;99.90;;;-141.84;80.69;18929.88;5010528;28;20791;-59
2022/10/30 04:46:10;;;;;;;9.10;7.07;;;14.00;99.90;;;-141.84;80.63;18893.28;5010651;28;20706;-58
2022/10/30 04:48:38;;;;;;;11.23;7.05;;;14.00;99.90;;;-141.84;80.79;18893.28;5010963;28;20234;-60
2022/10/30 04:51:07;;;;;;;8.90;7.43;;;13.90;99.90;;;-141.84;80.64;18909.53;5025254;28;20276;-58
2022/10/30 04:53:35;;;;;;;10.68;6.80;;;14.00;99.90;;;-141.84;80.54;18899.38;5030550;28;20214;-59
2022/10/30 04:56:05;;;;;;;11.95;6.75;;;14.00;99.90;;;-141.84;80.46;18911.56;5030980;28;20256;-59
2022/10/30 04:58:33;;;;;;;11.23;7.05;;;14.00;99.90;;;-141.84;80.21;18919.69;5030240;28;20252;-61
2022/10/30 05:01:02;;;;;;;12.50;7.15;;;14.00;99.90;;;-141.84;79.18;18964.41;5030215;28;20782;-60
2022/10/30 05:03:30;;;;;;;8.00;6.55;;;14.00;99.90;;;-141.84;79.80;18931.91;5030715;28;20222;-61
2022/10/30 05:06:02;;;;;;;7.38;6.60;;;14.00;99.90;;;-141.84;80.45;18919.69;5030005;28;20248;-59
2022/10/30 05:08:30;;;;;;;9.80;6.68;;;14.00;99.90;;;-141.84;80.52;18929.88;5010802;28;20194;-60
2022/10/30 05:10:59;;;;;;;9.93;6.88;;;14.00;99.90;;;-141.84;80.69;18897.34;5010851;28;20265;-61
2022/10/30 05:13:28;;;;;;;11.98;6.35;;;14.00;99.90;;;-141.84;81.03;18893.28;5010398;28;20238;-60
2022/10/30 05:15:56;;;;;;;9.05;6.78;;;13.90;99.90;;;-141.84;81.15;18891.25;5010279;28;20242;-59
2022/10/30 05:18:24;;;;;;;9.90;6.97;;;13.90;99.90;;;-141.84;81.20;18881.09;5010592;28;20227;-60
2022/10/30 05:20:52;;;;;;;10.23;6.10;;;13.90;99.90;;;-141.84;81.20;18907.50;5010394;28;20233;-60
2022/10/30 05:23:20;;;;;;;9.88;6.57;;;13.90;99.90;;;-141.84;81.13;18895.31;5010485;28;20222;-59
2022/10/30 05:25:48;;;;;;;11.20;7.40;;;13.90;99.90;;;-141.84;81.03;18879.06;5010871;28;20206;-59
2022/10/30 05:28:16;;;;;;;11.63;6.70;;;13.90;99.90;;;-141.84;80.93;18877.03;5010283;28;20234;-59
2022/10/30 05:30:45;;;;;;;10.40;6.85;;;14.00;99.90;;;-141.84;81.09;18923.78;5010351;28;20748;-59
2022/10/30 05:33:16;;;;;;;8.90;6.45;;;13.90;99.90;;;-141.84;81.17;18879.06;5014123;28;20227;-60
2022/10/30 05:35:44;;;;;;;9.20;7.40;;;13.90;99.90;;;-141.84;81.11;18901.41;5014138;28;20292;-61
2022/10/30 05:38:13;;;;;;;10.52;6.63;;;14.00;99.90;;;-141.84;80.77;18903.44;5014428;28;20297;-60
2022/10/30 05:40:41;;;;;;;8.77;6.28;;;14.00;99.90;;;-141.84;80.99;18919.69;5013869;28;20226;-59
2022/10/30 05:43:09;;;;;;;10.88;7.38;;;14.00;99.90;;;-141.84;80.56;18917.66;5013555;28;20276;-60
2022/10/30 05:45:37;;;;;;;9.60;6.63;;;14.10;99.90;;;-141.84;80.60;18911.56;5013704;28;20234;-58
2022/10/30 05:48:07;;;;;;;9.93;6.57;;;14.10;99.90;;;-141.84;80.39;18940.03;5033392;28;20256;-60
2022/10/30 05:50:35;;;;;;;8.73;6.63;;;14.00;99.90;;;-141.84;80.21;18923.78;5033460;28;20198;-61
2022/10/30 05:53:05;;;;;;;13.30;7.13;;;14.10;99.90;;;-141.84;79.48;18942.06;5033809;28;20206;-60
2022/10/30 05:55:33;;;;;;;10.63;7.07;;;14.20;99.90;;;-141.84;79.08;18921.75;5033412;28;20230;-61
2022/10/30 05:58:05;;;;;;;9.45;6.80;;;14.20;99.90;;;-141.84;79.24;18948.16;5032997;28;20748;-60
2022/10/30 06:00:35;;;;;;;10.98;6.57;;;14.20;99.90;;;-141.84;79.47;18919.69;5033420;28;20217;-61
2022/10/30 06:03:07;;;;;;;11.23;7.05;;;14.20;99.90;;;-141.84;79.53;18933.94;5033070;28;20236;-60
2022/10/30 06:05:37;;;;;;;10.27;6.85;;;14.20;99.90;;;-141.84;79.86;18962.38;5033429;28;20273;-60
2022/10/30 06:08:07;;;;;;;9.27;5.80;;;14.20;99.90;;;-141.84;80.06;18944.09;5015970;28;20230;-60
2022/10/30 06:10:35;;;;;;;10.32;6.97;;;14.20;99.90;;;-141.84;79.42;18917.66;5013334;28;20230;-59
2022/10/30 06:13:06;;;;;;;12.25;6.95;;;14.20;99.90;;;-141.84;78.68;18990.81;5012799;28;20718;-60
2022/10/30 06:15:34;;;;;;;11.40;6.95;;;14.20;99.90;;;-141.84;78.12;19013.16;5013123;28;20226;-60
2022/10/30 06:18:02;;;;;;;9.10;6.97;;;14.30;99.90;;;-141.84;78.78;18952.22;5013167;28;20581;-60
2022/10/30 06:20:32;;;;;;;11.07;7.28;;;14.30;99.90;;;-141.84;79.08;18927.84;5013100;28;20206;-59
2022/10/30 06:23:02;;;;;;;8.55;6.35;;;14.30;99.90;;;-141.84;79.57;18935.97;5013288;28;20261;-59
2022/10/30 06:25:34;;;;;;;9.05;6.10;;;14.20;99.90;;;-141.84;79.98;18964.41;5013075;28;20231;-61
2022/10/30 06:28:10;;;;;;;12.20;6.95;;;14.20;99.90;;;-141.84;79.91;18952.22;5012794;28;20230;-61
2022/10/30 06:30:38;;;;;;;10.77;6.80;;;14.10;99.90;;;-141.84;80.21;18933.94;5013082;28;20721;-58
2022/10/30 06:33:07;;;;;;;9.82;7.10;;;14.10;99.90;;;-141.84;80.59;18895.31;5013000;28;20248;-60
2022/10/30 06:35:36;;;;;;;11.23;7.53;;;14.00;99.90;;;-141.84;81.05;18948.16;5013108;28;20633;-60
2022/10/30 06:38:04;;;;;;;9.95;6.82;;;14.00;99.90;;;-141.84;81.26;18895.31;5013293;28;20203;-60
2022/10/30 06:40:33;;;;;;;13.18;7.50;;;14.00;99.90;;;-141.84;81.43;18875.00;5012779;28;20730;-60
2022/10/30 06:43:01;;;;;;;11.45;6.88;;;13.90;99.90;;;-141.84;81.24;18903.44;5020768;28;20237;-59
2022/10/30 06:45:30;;;;;;;10.10;6.75;;;14.00;99.90;;;-141.84;81.18;18868.91;5032635;28;20264;-62
2022/10/30 06:48:00;;;;;;;11.32;7.40;;;14.00;99.90;;;-141.84;81.12;18915.63;5032700;28;20237;-59
2022/10/30 06:50:29;;;;;;;14.00;7.05;;;14.00;99.90;;;-141.84;80.25;18923.78;5032613;28;20186;-60
2022/10/30 06:52:58;;;;;;;9.80;7.13;;;14.10;99.90;;;-141.84;79.31;18952.22;5033019;28;20209;-60
2022/10/30 06:55:26;;;;;;;10.35;6.78;;;14.20;99.90;;;-141.84;78.73;19007.06;5032305;28;20226;-59
2022/10/30 06:57:55;;;;;;;10.68;6.00;;;14.40;99.90;;;-141.84;77.82;19039.59;5032055;28;20234;-60
2022/10/30 07:00:24;;;;;;;11.48;6.47;;;14.50;99.90;;;-141.84;76.58;19039.59;5032587;28;20287;-59
2022/10/30 07:03:00;;;;;;;10.35;6.43;;;14.70;99.90;;;-141.84;75.54;19076.16;5032375;28;20693;-61
2022/10/30 07:05:29;;;;;;;11.32;5.75;;;14.90;99.90;;;-141.84;75.43;19078.19;5032268;28;20197;-60
2022/10/30 07:07:59;;;;;;;8.60;5.55;;;15.00;99.90;;;-141.84;75.65;19078.19;5015594;28;20222;-61
2022/10/30 07:10:27;;;;;;;8.95;6.25;;;15.00;99.90;;;-141.84;75.34;19135.09;5012339;28;20233;-59
2022/10/30 07:12:57;;;;;;;10.23;5.80;;;15.10;99.90;;;-141.84;75.63;19122.91;5012122;28;20230;-60
2022/10/30 07:15:26;;;;;;;7.63;5.90;;;15.10;99.90;;;-141.84;75.69;19137.13;5012278;28;20605;-59
2022/10/30 07:17:56;;;;;;;9.63;5.95;;;15.10;99.90;;;-141.84;75.64;19074.13;5012137;28;20230;-60
2022/10/30 07:20:26;;;;;;;7.60;5.47;;;15.10;99.90;;;-141.84;75.78;19068.03;5012447;28;20183;-59
2022/10/30 07:22:54;;;;;;;8.07;6.20;;;15.10;99.90;;;-141.84;75.91;19088.34;5012462;28;20219;-60
2022/10/30 07:25:24;;;;;;;8.05;6.43;;;15.10;99.90;;;-141.84;76.11;19066.00;5012190;28;20289;-61
2022/10/30 07:27:54;;;;;;;9.38;7.05;;;15.00;99.90;;;-141.84;76.38;19082.25;5011497;28;20244;-59
2022/10/30 07:30:25;;;;;;;11.45;6.50;;;15.00;99.90;;;-141.84;76.33;19068.03;5012188;28;20223;-59
2022/10/30 07:33:00;;;;;;;10.32;6.10;;;15.00;99.90;;;-141.84;76.12;19092.41;5011869;28;20753;-60
2022/10/30 07:35:31;;;;;;;7.95;6.45;;;14.90;99.90;;;-141.84;75.97;19090.38;5012052;28;20241;-60
2022/10/30 07:38:03;;;;;;;8.68;5.93;;;14.90;99.90;;;-141.84;76.23;19066.00;5012267;28;20210;-60
2022/10/30 07:40:33;;;;;;;9.50;6.18;;;14.90;99.90;;;-141.84;76.44;19112.75;5030155;28;20633;-60
2022/10/30 07:43:03;;;;;;;11.13;7.05;;;14.90;99.90;;;-141.84;76.48;19082.25;5031117;28;20229;-60
2022/10/30 07:45:32;;;;;;;12.68;6.07;;;14.90;99.90;;;-141.84;76.35;19092.41;5031361;28;20740;-60
2022/10/30 07:48:00;;;;;;;11.70;5.97;;;14.90;99.90;;;-141.84;76.31;19068.03;5031581;28;20724;-59
2022/10/30 07:50:29;;;;;;;9.90;5.93;;;14.90;99.90;;;-141.84;75.77;19135.09;5031386;28;20203;-59
2022/10/30 07:52:57;;;;;;;8.93;6.97;;;15.00;99.90;;;-141.84;75.21;19145.25;5031533;28;20202;-60
2022/10/30 07:55:25;;;;;;;8.88;6.72;;;15.10;99.90;;;-141.84;74.43;19149.31;5030546;28;20222;-59
2022/10/30 07:57:54;;;;;;;10.18;6.43;;;15.20;99.90;;;-141.84;74.62;19169.63;5031114;28;20226;-60
2022/10/30 08:00:23;;;;;;;8.98;6.00;;;15.20;99.90;;;-141.84;74.57;19145.25;5030983;28;20292;-60
2022/10/30 08:02:55;;;;;;;7.80;6.25;;;15.30;99.90;;;-141.84;74.07;19147.28;5031137;28;20229;-61
2022/10/30 08:05:24;;;;;;;8.20;5.93;;;15.20;99.90;;;-141.84;74.64;19151.34;5030904;28;20846;-60
2022/10/30 08:07:57;;;;;;;10.35;6.00;;;15.20;99.90;;;-141.84;74.99;19167.59;5015196;28;20221;-60
2022/10/30 08:10:26;;;;;;;13.00;6.93;;;15.20;99.90;;;-141.84;75.40;19118.84;5011107;28;20280;-60
2022/10/30 08:12:56;;;;;;;10.75;6.55;;;15.10;99.90;;;-141.84;75.07;19137.13;5010980;28;20222;-60
2022/10/30 08:15:24;;;;;;;9.77;6.50;;;15.20;99.90;;;-141.84;75.45;19167.59;5010934;28;20705;-60
2022/10/30 08:17:53;;;;;;;7.63;6.38;;;15.10;99.90;;;-141.84;75.46;19149.31;5011337;28;20549;-59
2022/10/30 08:20:23;;;;;;;9.15;6.22;;;15.10;99.90;;;-141.84;75.74;19175.72;5010901;28;20207;-59
2022/10/30 08:22:53;;;;;;;10.98;6.57;;;15.00;99.90;;;-141.84;75.94;19153.38;5011693;28;20191;-59
2022/10/30 08:25:24;;;;;;;11.77;6.15;;;15.00;99.90;;;-141.84;76.01;19114.78;5010965;28;20230;-59
2022/10/30 08:27:58;;;;;;;9.63;6.05;;;15.00;99.90;;;-141.84;76.37;19151.34;5010825;28;20814;-60
2022/10/30 08:30:29;;;;;;;7.68;5.78;;;15.00;99.90;;;-141.84;76.50;19110.72;5010882;28;20222;-60
2022/10/30 08:32:58;;;;;;;9.77;6.05;;;14.90;99.90;;;-141.84;76.83;19088.34;5010852;28;20249;-59
2022/10/30 08:35:27;;;;;;;8.88;6.03;;;14.90;99.90;;;-141.84;76.74;19114.78;5018513;28;20206;-59
2022/10/30 08:37:56;;;;;;;8.43;5.57;;;15.00;99.90;;;-141.84;76.77;19102.56;5031014;28;20233;-58
2022/10/30 08:40:26;;;;;;;9.60;6.13;;;15.00;99.90;;;-141.84;76.87;19129.00;5030779;28;20232;-60
2022/10/30 08:42:57;;;;;;;8.27;5.97;;;15.00;99.90;;;-141.84;76.86;19106.66;5030581;28;20234;-61
2022/10/30 08:45:26;;;;;;;9.88;6.53;;;15.10;99.90;;;-141.84;76.19;19141.19;5030195;28;20300;-61
2022/10/30 08:47:59;;;;;;;8.05;6.53;;;15.20;99.90;;;-141.84;74.82;19185.88;5030606;28;20253;-60
2022/10/30 08:50:29;;;;;;;11.75;6.05;;;15.50;99.90;;;-141.84;73.36;19218.41;5030436;28;20236;-61
2022/10/30 08:53:00;;;;;;;8.45;6.00;;;15.80;99.90;;;-141.84;72.15;19299.69;5031008;28;20208;-60
2022/10/30 08:55:29;;;;;;;13.05;7.10;;;16.00;99.90;;;-141.84;70.94;19368.78;5030447;28;20236;-61
2022/10/30 08:57:59;;;;;;;9.95;6.00;;;16.20;99.90;;;-141.84;69.99;19401.28;5030306;28;20229;-60
2022/10/30 09:00:28;;;;;;;8.52;5.97;;;16.40;99.90;;;-141.84;69.36;19427.72;5030324;28;20230;-60
2022/10/30 09:02:56;;;;;;;8.10;6.00;;;16.70;99.90;;;-141.84;69.07;19462.25;5030662;28;20222;-60
2022/10/30 09:05:25;;;;;;;11.98;6.15;;;16.80;99.90;;;-141.84;68.10;19539.47;5030479;28;20202;-60
2022/10/30 09:07:56;;;;;;;11.70;6.10;;;17.00;99.90;;;-141.84;67.41;19588.25;5018855;28;20210;-61
2022/10/30 09:10:25;;;;;;;10.32;5.63;;;17.20;99.90;;;-141.84;67.26;19594.34;5014358;28;20242;-60
2022/10/30 09:12:56;;;;;;;10.40;6.20;;;17.40;99.90;;;-141.84;66.44;19592.31;5014346;28;20230;-60
2022/10/30 09:15:27;;;;;;;12.65;6.22;;;17.50;99.90;;;-141.84;66.09;19675.63;5014288;28;20237;-60
2022/10/30 09:17:59;;;;;;;11.45;5.97;;;17.60;99.90;;;-141.84;65.69;19738.66;5014024;28;20583;-60
2022/10/30 09:20:30;;;;;;;8.25;5.38;;;17.70;99.90;;;-141.84;65.63;19700.03;5014435;28;20187;-59
2022/10/30 09:22:58;;;;;;;11.00;6.10;;;17.90;99.90;;;-141.84;65.67;19716.28;5014865;28;20203;-60
2022/10/30 09:25:26;;;;;;;8.38;5.57;;;18.00;99.90;;;-141.84;65.16;19795.53;5013825;28;20721;-60
2022/10/30 09:27:54;;;;;;;10.73;5.43;;;18.20;99.90;;;-141.84;64.60;19801.66;5014190;28;20241;-60
2022/10/30 09:30:24;;;;;;;10.05;5.95;;;18.30;99.90;;;-141.84;63.86;19838.22;5014005;28;20235;-62
2022/10/30 09:32:56;;;;;;;10.50;5.43;;;18.40;99.90;;;-141.84;63.85;19878.88;5031709;28;20232;-60
2022/10/30 09:35:26;;;;;;;10.10;5.05;;;18.50;99.90;;;-141.84;63.26;19901.22;5033871;28;20210;-60
2022/10/30 09:37:55;;;;;;;9.63;5.55;;;18.60;99.90;;;-141.84;63.19;19947.97;5034303;28;20449;-61
2022/10/30 09:40:41;;;;;;;12.98;5.50;;;18.80;99.90;;;-141.84;62.22;19990.66;5033649;28;20249;-63
2022/10/30 09:43:27;;;;;;;9.18;5.05;;;18.80;99.90;;;-141.84;62.27;19986.59;5033665;28;20275;-61
2022/10/30 09:46:20;;;;;;;7.72;4.88;;;19.00;99.90;;;-141.84;61.99;20051.63;5033380;28;20245;-61
2022/10/30 09:49:10;;;;;;;9.50;5.28;;;19.10;99.90;;;-141.84;61.30;20076.03;5033562;28;20230;-63
2022/10/30 09:52:04;;;;;;;11.68;5.40;;;19.20;99.90;;;-141.84;60.82;20124.81;5033127;28;20225;-61
2022/10/30 09:54:55;;;;;;;8.13;4.65;;;19.30;99.90;;;-141.84;60.75;20134.97;5033127;28;20732;-62
2022/10/30 09:57:39;;;;;;;6.75;4.80;;;19.40;99.90;;;-141.84;60.95;20171.56;5033232;28;20234;-61
2022/10/30 10:00:12;;;;;;;8.57;5.03;;;19.50;99.90;;;-141.84;60.98;20171.56;5033238;28;20241;-60
2022/10/30 10:02:58;;;;;;;14.85;5.55;;;19.60;99.90;;;-141.84;60.09;20214.22;5033057;28;20232;-62
2022/10/30 10:05:38;;;;;;;10.10;5.35;;;19.70;99.90;;;-141.84;59.13;20220.34;5033298;28;20209;-62
2022/10/30 10:08:15;;;;;;;12.88;5.72;;;19.70;99.90;;;-141.84;58.82;20250.81;5016509;28;20213;-61
2022/10/30 10:10:47;;;;;;;7.10;4.63;;;19.80;99.90;;;-141.84;59.46;20269.13;5013510;28;20744;-62
2022/10/30 10:13:30;;;;;;;9.48;4.78;;;19.90;99.90;;;-141.84;59.41;20313.84;5013692;28;20238;-61
2022/10/30 10:16:11;;;;;;;9.52;5.13;;;19.90;99.90;;;-141.84;59.53;20315.88;5013634;28;20233;-62
2022/10/30 10:18:46;;;;;;;8.10;4.70;;;20.00;99.90;;;-141.84;57.75;20391.06;5013285;28;20218;-61
2022/10/30 10:21:24;;;;;;;9.38;4.70;;;20.10;99.90;;;-141.84;57.69;20460.19;5013326;28;20237;-61